Time;durP1;ratioP1;P1;durP2;ratioP2;P2;SDS_P1;SDS_P2;PMS_P1;PMS_P2;Temp;Humidity;BMP_temperature;BMP_pressure;BME280_temperature;BME280_humidity;BME280_pressure;Samples;Min_cycle;Max_cycle;Signal;HPM_P1;HPM_P2
2021/12/06 00:00:16;;;;;;;89.47;38.90;;;;;;;-1.87;100.00;99816.89;1700049;82;21500;-84
2021/12/06 00:02:43;;;;;;;87.92;37.83;;;;;;;-1.88;100.00;99828.08;1707733;82;22250;-78
2021/12/06 00:05:10;;;;;;;95.87;39.88;;;;;;;-1.86;100.00;99818.60;1722931;82;21021;-79
2021/12/06 00:07:38;;;;;;;95.10;38.10;;;;;;;-1.84;100.00;99828.52;1667331;86;21182;-79
2021/12/06 00:10:08;;;;;;;75.92;34.08;;;;;;;-1.83;100.00;99824.67;1667517;86;21050;-79
2021/12/06 00:12:34;;;;;;;103.00;37.17;;;;;;;-1.80;100.00;99824.69;1668804;86;21204;-79
2021/12/06 00:15:01;;;;;;;90.17;37.23;;;;;;;-1.79;100.00;99817.83;1669361;85;21077;-78
2021/12/06 00:17:27;;;;;;;82.12;35.52;;;;;;;-1.75;100.00;99819.55;1669574;86;21130;-80
2021/12/06 00:19:54;;;;;;;79.80;34.85;;;;;;;-1.72;100.00;99826.91;1669182;86;21141;-79
2021/12/06 00:22:23;;;;;;;106.58;34.23;;;;;;;-1.70;100.00;99814.03;1670661;85;21028;-78
2021/12/06 00:24:51;;;;;;;81.40;34.08;;;;;;;-1.68;100.00;99823.91;1700499;83;21118;-78
2021/12/06 00:27:18;;;;;;;80.00;33.10;;;;;;;-1.66;100.00;99819.63;1709523;83;21527;-79
2021/12/06 00:29:45;;;;;;;78.10;31.82;;;;;;;-1.62;100.00;99817.95;1699496;84;21160;-79
2021/12/06 00:32:12;;;;;;;95.85;36.53;;;;;;;-1.60;100.00;99822.27;1708693;83;21081;-79
2021/12/06 00:34:39;;;;;;;74.50;32.95;;;;;;;-1.61;100.00;99823.13;1682539;84;21091;-78
2021/12/06 00:37:22;;;;;;;86.65;33.90;;;;;;;-1.60;100.00;99826.14;1656975;86;21540;-85
2021/12/06 00:39:48;;;;;;;72.17;30.30;;;;;;;-1.55;100.00;99815.41;1672911;85;21576;-82
2021/12/06 00:42:15;;;;;;;74.50;30.65;;;;;;;-1.55;100.00;99806.37;1687507;85;21156;-82
2021/12/06 00:44:42;;;;;;;131.80;46.35;;;;;;;-1.55;100.00;99797.33;1672090;85;21690;-82
2021/12/06 00:47:08;;;;;;;76.53;30.80;;;;;;;-1.52;100.00;99800.36;1685672;85;21022;-82
2021/12/06 00:49:35;;;;;;;79.55;30.52;;;;;;;-1.50;100.00;99795.63;1693702;84;21117;-81
2021/12/06 00:52:04;;;;;;;76.50;32.10;;;;;;;-1.46;100.00;99798.26;1668716;86;21068;-83
2021/12/06 00:54:35;;;;;;;82.40;33.48;;;;;;;-1.48;100.00;99796.52;1678676;84;21724;-82
2021/12/06 00:57:07;;;;;;;72.90;31.27;;;;;;;-1.48;100.00;99791.34;1671603;85;21107;-81
2021/12/06 00:59:35;;;;;;;76.92;31.12;;;;;;;-1.46;100.00;99792.66;1671605;85;21620;-81
2021/12/06 01:02:02;;;;;;;81.72;32.63;;;;;;;-1.45;100.00;99795.66;1671654;85;21158;-82
2021/12/06 01:04:32;;;;;;;69.30;28.73;;;;;;;-1.44;100.00;99795.27;1668634;86;21033;-82
2021/12/06 01:06:58;;;;;;;69.85;29.50;;;;;;;-1.44;100.00;99791.39;1668361;86;21426;-82
2021/12/06 01:09:25;;;;;;;70.92;30.25;;;;;;;-1.41;100.00;99795.27;1668322;84;22255;-81
2021/12/06 01:11:54;;;;;;;75.10;31.48;;;;;;;-1.40;100.00;99792.70;1668458;86;21060;-82
2021/12/06 01:14:20;;;;;;;71.02;29.40;;;;;;;-1.40;100.00;99786.65;1685313;84;21145;-82
2021/12/06 01:16:47;;;;;;;75.83;31.45;;;;;;;-1.40;100.00;99787.54;1696967;84;21046;-81
2021/12/06 01:19:15;;;;;;;64.58;27.45;;;;;;;-1.38;100.00;99789.71;1704262;84;21589;-82
2021/12/06 01:21:49;;;;;;;66.95;28.42;;;;;;;-1.37;100.00;99781.09;1648110;85;21142;-82
2021/12/06 01:24:12;;;;;;;70.70;28.55;;;;;;;-1.37;100.00;99785.40;1674741;85;21007;-83
2021/12/06 01:27:12;;;;;;;64.47;27.07;;;;;;;-1.37;100.00;99775.92;1741432;82;21138;-80
2021/12/06 01:40:10;;;;;;;56.18;24.85;;;;;;;-1.38;100.00;99778.48;1740383;82;21111;-81
2021/12/06 01:42:37;;;;;;;57.00;25.30;;;;;;;-1.38;100.00;99772.03;1740224;82;21078;-81
2021/12/06 01:45:05;;;;;;;51.83;23.52;;;;;;;-1.37;100.00;99770.76;1740257;82;21636;-80
2021/12/06 01:47:36;;;;;;;52.60;24.52;;;;;;;-1.38;100.00;99769.05;1740113;82;21089;-79
2021/12/06 01:50:10;;;;;;;56.15;24.80;;;;;;;-1.40;100.00;99764.69;1740870;81;21027;-82
2021/12/06 01:52:45;;;;;;;52.43;24.47;;;;;;;-1.37;100.00;99763.44;1676116;85;21507;-82
2021/12/06 01:55:18;;;;;;;55.80;25.12;;;;;;;-1.39;100.00;99753.53;1676833;85;21130;-83
2021/12/06 01:57:44;;;;;;;49.13;23.30;;;;;;;-1.39;100.00;99761.27;1672017;85;21133;-81
2021/12/06 02:00:19;;;;;;;48.83;22.50;;;;;;;-1.41;100.00;99756.09;1699927;84;21129;-82
2021/12/06 02:02:47;;;;;;;52.88;23.18;;;;;;;-1.41;100.00;99757.81;1671319;84;21082;-82
2021/12/06 02:05:15;;;;;;;48.23;22.70;;;;;;;-1.42;100.00;99751.80;1670830;85;21791;-81
2021/12/06 02:07:43;;;;;;;48.30;22.48;;;;;;;-1.38;100.00;99760.00;1671574;85;21037;-82
2021/12/06 02:10:11;;;;;;;41.05;18.95;;;;;;;-1.37;100.00;99759.13;1671351;85;21104;-84
2021/12/06 02:12:37;;;;;;;46.05;22.45;;;;;;;-1.38;100.00;99757.42;1671396;85;21179;-82
2021/12/06 02:15:28;;;;;;;47.13;21.17;;;;;;;-1.40;100.00;99756.55;1671484;85;21101;-84
2021/12/06 02:17:52;;;;;;;45.60;22.05;;;;;;;-1.41;100.00;99764.27;1668580;85;21616;-83
2021/12/06 02:20:20;;;;;;;44.00;20.82;;;;;;;-1.43;100.00;99761.67;1669536;85;21120;-82
2021/12/06 02:22:45;;;;;;;41.30;20.55;;;;;;;-1.43;100.00;99756.94;1643442;85;21081;-84
2021/12/06 02:25:15;;;;;;;40.12;20.12;;;;;;;-1.41;100.00;99762.98;1638700;86;21093;-82
2021/12/06 02:27:41;;;;;;;44.00;21.02;;;;;;;-1.39;100.00;99759.55;1666098;85;21567;-81
2021/12/06 02:30:09;;;;;;;50.60;21.97;;;;;;;-1.38;100.00;99767.75;1660914;85;21136;-79
2021/12/06 02:32:37;;;;;;;52.10;23.90;;;;;;;-1.38;100.00;99762.98;1733412;82;21142;-81
2021/12/06 02:35:07;;;;;;;41.48;20.25;;;;;;;-1.40;100.00;99753.07;1733775;82;20995;-81
2021/12/06 02:37:35;;;;;;;47.33;22.65;;;;;;;-1.41;100.00;99761.25;1731493;82;21125;-80
2021/12/06 02:40:08;;;;;;;45.80;22.85;;;;;;;-1.41;100.00;99757.81;1714275;82;21061;-77
2021/12/06 02:42:36;;;;;;;45.75;22.60;;;;;;;-1.42;100.00;99756.10;1704198;84;21597;-79
2021/12/06 02:45:06;;;;;;;45.50;22.25;;;;;;;-1.42;100.00;99756.10;1704449;84;21102;-79
2021/12/06 02:47:34;;;;;;;45.73;21.57;;;;;;;-1.43;100.00;99756.94;1704330;84;21033;-77
2021/12/06 02:50:07;;;;;;;47.83;22.32;;;;;;;-1.45;100.00;99747.02;1703590;83;21105;-79
2021/12/06 02:52:29;;;;;;;48.52;23.65;;;;;;;-1.48;100.00;99750.02;1703667;84;21021;-79
2021/12/06 02:54:59;;;;;;;52.90;22.75;;;;;;;-1.49;100.00;99747.45;1704018;84;21095;-79
2021/12/06 02:57:35;;;;;;;50.63;23.55;;;;;;;-1.51;100.00;99748.72;1728547;82;21062;-78
2021/12/06 03:00:06;;;;;;;46.50;22.35;;;;;;;-1.51;100.00;99753.89;1733256;82;21074;-79
2021/12/06 03:02:33;;;;;;;43.80;23.40;;;;;;;-1.50;100.00;99753.02;1733033;82;21101;-80
2021/12/06 03:05:00;;;;;;;51.18;25.15;;;;;;;-1.49;100.00;99753.47;1733242;82;21019;-79
2021/12/06 03:07:28;;;;;;;47.70;23.22;;;;;;;-1.48;100.00;99753.90;1733316;82;21549;-80
2021/12/06 03:09:57;;;;;;;54.33;25.37;;;;;;;-1.49;100.00;99748.31;1733355;82;21105;-80
2021/12/06 03:12:26;;;;;;;50.78;25.05;;;;;;;-1.49;100.00;99747.45;1733361;82;21045;-79
2021/12/06 03:14:56;;;;;;;52.95;25.40;;;;;;;-1.46;100.00;99754.34;1733469;82;21319;-80
2021/12/06 03:17:27;;;;;;;52.65;26.17;;;;;;;-1.45;100.00;99750.46;1734152;82;21113;-80
2021/12/06 03:19:55;;;;;;;56.18;25.70;;;;;;;-1.43;100.00;99759.52;1733536;82;21127;-81
2021/12/06 03:22:21;;;;;;;47.55;23.12;;;;;;;-1.44;100.00;99755.23;1733212;82;21046;-81
2021/12/06 03:24:49;;;;;;;45.83;20.62;;;;;;;-1.44;100.00;99755.23;1736406;81;21006;-81
2021/12/06 03:27:17;;;;;;;47.15;22.45;;;;;;;-1.43;100.00;99756.94;1741562;82;21077;-80
2021/12/06 03:29:44;;;;;;;45.50;22.10;;;;;;;-1.42;100.00;99753.52;1741566;82;21088;-82
2021/12/06 03:32:11;;;;;;;53.75;25.02;;;;;;;-1.45;100.00;99749.17;1741963;82;21099;-81
2021/12/06 03:34:37;;;;;;;44.95;17.77;;;;;;;-1.45;100.00;99754.34;1742076;82;21022;-83
2021/12/06 03:37:05;;;;;;;48.23;23.25;;;;;;;-1.48;100.00;99753.90;1742526;82;21039;-85
2021/12/06 03:39:41;;;;;;;48.40;23.32;;;;;;;-1.49;100.00;99762.52;1742405;82;21068;-84
2021/12/06 03:42:10;;;;;;;54.58;22.27;;;;;;;-1.47;100.00;99758.66;1742708;82;21026;-84
2021/12/06 03:44:37;;;;;;;48.05;21.97;;;;;;;-1.46;100.00;99763.39;1742576;82;21851;-84
2021/12/06 03:47:16;;;;;;;41.83;20.48;;;;;;;-1.45;100.00;99761.23;1742301;82;21105;-82
2021/12/06 03:49:43;;;;;;;44.48;20.77;;;;;;;-1.43;100.00;99764.69;1734947;80;82291;-86
2021/12/06 03:52:12;;;;;;;47.00;21.30;;;;;;;-1.45;100.00;99762.52;1665731;83;21051;-88
2021/12/06 03:54:40;;;;;;;45.73;21.00;;;;;;;-1.50;100.00;99771.09;1716470;83;21000;-87
2021/12/06 03:57:06;;;;;;;45.03;22.22;;;;;;;-1.48;100.00;99777.58;1716959;83;21186;-88
2021/12/06 03:59:34;;;;;;;44.95;20.48;;;;;;;-1.46;100.00;99774.58;1716605;83;21044;-87
2021/12/06 04:02:01;;;;;;;41.58;19.48;;;;;;;-1.43;100.00;99775.02;1717601;83;20979;-88
2021/12/06 04:04:28;;;;;;;43.05;20.92;;;;;;;-1.45;100.00;99786.63;1711505;84;21021;-87
2021/12/06 04:06:55;;;;;;;45.10;20.17;;;;;;;-1.43;100.00;99775.02;1712794;83;21983;-88
2021/12/06 04:09:21;;;;;;;50.12;22.60;;;;;;;-1.41;100.00;99773.31;1719045;83;22049;-85
2021/12/06 04:11:48;;;;;;;42.75;19.23;;;;;;;-1.42;100.00;99769.02;1718567;83;21675;-86
2021/12/06 04:14:16;;;;;;;47.40;19.92;;;;;;;-1.41;100.00;99770.73;1689756;83;21069;-87
2021/12/06 04:16:44;;;;;;;40.80;19.25;;;;;;;-1.39;100.00;99767.73;1713551;82;21133;-87
2021/12/06 04:19:11;;;;;;;46.65;20.05;;;;;;;-1.39;100.00;99769.02;1707813;82;21039;-84
2021/12/06 04:21:39;;;;;;;39.42;18.52;;;;;;;-1.40;100.00;99765.98;1713735;81;21109;-86
2021/12/06 04:24:06;;;;;;;38.50;19.48;;;;;;;-1.41;100.00;99761.69;1729299;82;21068;-86
2021/12/06 04:26:33;;;;;;;35.35;17.15;;;;;;;-1.42;100.00;99769.02;1696226;83;21038;-86
2021/12/06 04:29:01;;;;;;;43.63;19.90;;;;;;;-1.43;100.00;99769.86;1695880;83;21107;-86
2021/12/06 04:31:34;;;;;;;43.75;20.10;;;;;;;-1.44;100.00;99759.10;1725646;81;21030;-86
2021/12/06 04:34:02;;;;;;;43.70;18.87;;;;;;;-1.45;100.00;99749.61;1740902;82;21113;-87
2021/12/06 04:36:28;;;;;;;57.15;24.15;;;;;;;-1.48;100.00;99750.02;1732284;82;21104;-87
2021/12/06 04:38:56;;;;;;;43.58;19.52;;;;;;;-1.44;100.00;99761.25;1731160;82;21109;-87
2021/12/06 04:41:23;;;;;;;50.28;22.50;;;;;;;-1.42;100.00;99752.23;1719264;82;21097;-86
2021/12/06 04:43:50;;;;;;;42.13;18.82;;;;;;;-1.41;100.00;99744.90;1705493;83;21069;-87
2021/12/06 04:46:17;;;;;;;50.00;23.35;;;;;;;-1.40;100.00;99760.41;1719295;82;21082;-87
2021/12/06 04:48:45;;;;;;;47.83;23.18;;;;;;;-1.40;100.00;99763.41;1716571;82;20957;-88
2021/12/06 04:51:14;;;;;;;44.18;20.37;;;;;;;-1.40;100.00;99760.41;1715419;83;21101;-89
2021/12/06 04:53:42;;;;;;;53.38;23.10;;;;;;;-1.38;100.00;99760.41;1715947;83;21024;-88
2021/12/06 04:56:29;;;;;;;56.45;22.37;;;;;;;-1.41;100.00;99759.97;1716370;83;21044;-86
2021/12/06 04:59:02;;;;;;;53.38;23.30;;;;;;;-1.42;100.00;99754.81;1714591;83;21107;-87
2021/12/06 05:01:36;;;;;;;58.23;25.40;;;;;;;-1.41;100.00;99750.06;1715230;83;21135;-89
2021/12/06 05:04:05;;;;;;;50.90;23.02;;;;;;;-1.45;100.00;99755.63;1715206;83;20985;-89
2021/12/06 05:06:36;;;;;;;78.78;28.85;;;;;;;-1.42;100.00;99758.25;1716503;83;21197;-90
2021/12/06 05:09:15;;;;;;;55.55;24.18;;;;;;;-1.40;100.00;99767.28;1716202;83;20991;-88
2021/12/06 05:11:48;;;;;;;54.85;23.02;;;;;;;-1.40;100.00;99765.59;1715443;83;21264;-90
2021/12/06 05:14:16;;;;;;;54.93;23.35;;;;;;;-1.39;100.00;99759.55;1715443;82;21000;-89
2021/12/06 05:16:44;;;;;;;57.70;23.77;;;;;;;-1.39;100.00;99769.02;1715786;83;21547;-89
2021/12/06 05:19:14;;;;;;;56.73;25.12;;;;;;;-1.38;100.00;99772.92;1715896;83;21015;-90
2021/12/06 05:21:44;;;;;;;54.50;22.73;;;;;;;-1.37;100.00;99773.77;1722219;82;21042;-90
2021/12/06 05:24:11;;;;;;;50.52;22.98;;;;;;;-1.39;100.00;99776.77;1738722;82;21125;-90
2021/12/06 05:26:39;;;;;;;53.92;22.80;;;;;;;-1.36;100.00;99775.48;1722793;82;21085;-89
2021/12/06 05:29:14;;;;;;;53.13;23.35;;;;;;;-1.34;100.00;99772.48;1723956;82;21109;-92
2021/12/06 05:31:56;;;;;;;49.75;20.50;;;;;;;-1.34;100.00;99778.51;1722768;82;20947;-93
2021/12/06 05:34:50;;;;;;;46.90;22.30;;;;;;;-1.36;100.00;99771.61;1718828;83;21042;-92
2021/12/06 05:37:29;;;;;;;53.90;23.03;;;;;;;-1.37;100.00;99775.06;1717690;82;21128;-93
2021/12/06 05:40:18;;;;;;;47.43;21.55;;;;;;;-1.36;100.00;99779.36;1694033;83;21041;-94
2021/12/06 05:43:06;;;;;;;45.15;19.02;;;;;;;-1.38;100.00;99778.08;1692873;82;20964;-94
2021/12/06 05:45:56;;;;;;;54.50;23.45;;;;;;;-1.34;100.00;99787.98;1704610;81;20894;-89
2021/12/06 05:48:35;;;;;;;58.00;25.68;;;;;;;-1.33;100.00;99781.98;1718585;81;20852;-93
2021/12/06 05:51:18;;;;;;;53.33;24.85;;;;;;;-1.33;100.00;99781.98;1717008;82;21376;-88
2021/12/06 05:53:51;;;;;;;52.65;22.75;;;;;;;-1.32;100.00;99786.28;1682154;81;21038;-89
2021/12/06 05:56:29;;;;;;;55.15;25.55;;;;;;;-1.40;100.00;99768.16;1640089;83;20998;-92
2021/12/06 05:59:04;;;;;;;58.42;25.82;;;;;;;-1.29;100.00;99781.12;1632359;84;20903;-88
2021/12/06 06:01:37;;;;;;;62.48;27.82;;;;;;;-1.29;100.00;99791.45;1655971;84;20991;-91
2021/12/06 06:04:09;;;;;;;91.65;38.17;;;;;;;-1.27;100.00;99789.34;1637537;86;21094;-89
2021/12/06 06:06:40;;;;;;;91.45;41.42;;;;;;;-1.25;100.00;99794.50;1653481;84;20960;-89
2021/12/06 06:09:12;;;;;;;59.30;27.40;;;;;;;-1.22;100.00;99788.08;1651115;84;20962;-91
2021/12/06 06:11:43;;;;;;;86.67;32.85;;;;;;;-1.21;100.00;99784.62;1640417;86;21110;-90
2021/12/06 06:14:18;;;;;;;61.55;28.52;;;;;;;-1.18;100.00;99783.77;1623756;87;21082;-91
2021/12/06 06:16:50;;;;;;;62.17;27.52;;;;;;;-1.17;100.00;99787.66;1652497;84;21468;-91
2021/12/06 06:19:25;;;;;;;64.85;25.08;;;;;;;-1.04;100.00;99786.42;1645016;84;21027;-92
2021/12/06 06:21:57;;;;;;;292.40;81.97;;;;;;;-1.01;100.00;99790.30;1619792;87;21085;-92
2021/12/06 06:24:34;;;;;;;62.85;27.02;;;;;;;-0.94;100.00;99785.62;1659537;85;21002;-91
2021/12/06 06:33:08;;;;;;;111.10;40.65;;;;;;;-0.90;100.00;99795.09;1623666;87;20994;-92
2021/12/06 06:35:52;;;;;;;258.23;78.02;;;;;;;-0.92;100.00;99796.80;1684389;84;21081;-91
2021/12/06 06:38:34;;;;;;;87.75;36.33;;;;;;;-0.88;100.00;99799.84;1682956;85;21039;-91
2021/12/06 06:41:03;;;;;;;57.95;26.23;;;;;;;-0.86;100.00;99805.88;1699894;81;83420;-75
2021/12/06 06:43:30;;;;;;;66.57;29.12;;;;;;;-0.83;100.00;99800.72;1695960;83;21171;-75
2021/12/06 06:45:56;;;;;;;66.05;28.17;;;;;;;-0.81;100.00;99796.42;1700044;83;21039;-76
2021/12/06 06:48:23;;;;;;;65.12;27.20;;;;;;;-0.83;100.00;99799.42;1690083;83;21659;-75
2021/12/06 06:50:49;;;;;;;62.75;27.52;;;;;;;-0.81;100.00;99802.87;1654808;84;21085;-76
2021/12/06 06:53:15;;;;;;;58.80;25.95;;;;;;;-0.81;100.00;99804.61;1666142;84;21081;-76
2021/12/06 06:55:42;;;;;;;53.28;23.40;;;;;;;-0.78;100.00;99797.74;1664521;84;21127;-75
2021/12/06 06:58:09;;;;;;;60.50;26.05;;;;;;;-0.79;100.00;99789.97;1653055;84;21050;-76
2021/12/06 07:00:37;;;;;;;60.40;26.82;;;;;;;-0.79;100.00;99800.31;1663165;84;21071;-76
2021/12/06 07:03:04;;;;;;;73.72;29.30;;;;;;;-0.76;100.00;99799.91;1607005;86;21131;-77
2021/12/06 07:05:31;;;;;;;100.87;35.25;;;;;;;-0.74;100.00;99799.89;1663716;84;21137;-76
2021/12/06 07:07:58;;;;;;;87.02;32.00;;;;;;;-0.73;100.00;99798.61;1644497;84;21079;-78
2021/12/06 07:10:26;;;;;;;91.85;32.80;;;;;;;-0.69;100.00;99797.77;1653700;84;22207;-75
2021/12/06 07:12:53;;;;;;;66.22;25.80;;;;;;;-0.68;100.00;99796.91;1659921;84;21523;-73
2021/12/06 07:15:27;;;;;;;67.27;28.30;;;;;;;-0.68;100.00;99799.48;1652268;85;21122;-74
2021/12/06 07:17:53;;;;;;;56.73;25.20;;;;;;;-0.68;100.00;99805.95;1651700;84;21090;-74
2021/12/06 07:20:21;;;;;;;61.68;25.50;;;;;;;-0.68;100.00;99802.08;1647601;84;22367;-75
2021/12/06 07:22:51;;;;;;;52.25;24.18;;;;;;;-0.65;100.00;99802.51;1653045;84;21067;-75
2021/12/06 07:25:17;;;;;;;65.75;27.90;;;;;;;-0.59;100.00;99808.15;1661160;84;21522;-74
2021/12/06 07:27:44;;;;;;;57.70;24.87;;;;;;;-0.55;100.00;99809.86;1659122;84;21131;-75
2021/12/06 07:30:12;;;;;;;70.50;28.45;;;;;;;-0.51;100.00;99804.70;1653667;84;21599;-75
2021/12/06 07:32:39;;;;;;;87.02;33.13;;;;;;;-0.49;100.00;99802.13;1645352;84;21094;-76
2021/12/06 07:35:07;;;;;;;68.00;27.58;;;;;;;-0.45;100.00;99802.58;1652876;84;21058;-75
2021/12/06 07:40:25;;;;;;;71.33;27.13;;;;;;;-0.34;100.00;99797.44;1784940;79;22597;-74
2021/12/06 07:42:52;;;;;;;60.90;23.65;;;;;;;-0.35;100.00;99791.38;1748136;81;20958;-74
2021/12/06 07:45:19;;;;;;;54.98;24.55;;;;;;;-0.30;100.00;99796.15;1748447;81;21104;-74
2021/12/06 07:47:46;;;;;;;70.75;27.98;;;;;;;-0.24;100.00;99797.43;1746174;80;21813;-73
2021/12/06 07:50:17;;;;;;;80.20;27.52;;;;;;;-0.25;100.00;99798.30;1759190;80;21055;-74
2021/12/06 07:52:44;;;;;;;56.28;24.02;;;;;;;-0.28;100.00;99799.57;1771896;80;21036;-74
2021/12/06 07:55:12;;;;;;;67.08;26.87;;;;;;;-0.26;100.00;99808.64;1767629;80;20980;-75
2021/12/06 07:57:39;;;;;;;59.90;25.17;;;;;;;-0.26;100.00;99812.52;1779765;80;21081;-74
2021/12/06 08:00:11;;;;;;;55.08;23.12;;;;;;;-0.29;100.00;99810.80;1762992;80;21075;-74
2021/12/06 08:02:38;;;;;;;65.92;25.65;;;;;;;-0.27;100.00;99811.67;1772925;78;20981;-79
2021/12/06 08:07:51;;;;;;;89.25;29.85;;;;;;;-0.25;100.00;99813.83;1774666;80;21385;-77
2021/12/06 08:10:19;;;;;;;62.38;25.88;;;;;;;-0.21;100.00;99813.39;1762296;80;21032;-80
2021/12/06 08:12:47;;;;;;;56.53;24.40;;;;;;;-0.17;100.00;99819.02;1758221;80;21008;-77
2021/12/06 08:15:14;;;;;;;46.50;22.27;;;;;;;-0.19;100.00;99818.58;1771353;80;21665;-79
2021/12/06 08:17:42;;;;;;;90.12;31.17;;;;;;;-0.16;100.00;99810.80;1767136;80;21549;-79
2021/12/06 08:20:10;;;;;;;65.57;24.25;;;;;;;-0.06;100.00;99824.21;1771361;80;21016;-77
2021/12/06 08:22:36;;;;;;;57.05;24.75;;;;;;;-0.05;100.00;99827.22;1768179;80;21808;-78
2021/12/06 08:25:04;;;;;;;75.52;29.32;;;;;;;-0.05;100.00;99828.52;1748952;80;21039;-76
2021/12/06 08:27:31;;;;;;;60.80;25.00;;;;;;;-0.06;100.00;99826.36;1763570;80;21020;-78
2021/12/06 08:29:57;;;;;;;64.90;24.37;;;;;;;-0.07;100.00;99835.41;1788588;80;21032;-76
2021/12/06 08:32:24;;;;;;;60.40;22.93;;;;;;;-0.08;100.00;99837.14;1759362;80;21024;-76
2021/12/06 08:34:50;;;;;;;55.45;24.63;;;;;;;-0.09;100.00;99833.25;1777268;80;21501;-78
2021/12/06 08:37:17;;;;;;;85.95;33.02;;;;;;;-0.10;100.00;99834.13;1741712;80;21628;-77
2021/12/06 08:39:43;;;;;;;77.17;29.48;;;;;;;-0.09;100.00;99826.77;1762348;80;21063;-78
2021/12/06 08:42:10;;;;;;;77.82;31.55;;;;;;;-0.06;100.00;99828.09;1770987;80;20990;-77
2021/12/06 08:44:36;;;;;;;73.40;29.35;;;;;;;-0.07;100.00;99822.06;1758879;80;21733;-77
2021/12/06 08:47:04;;;;;;;70.50;27.35;;;;;;;-0.10;100.00;99822.03;1760924;80;21950;-78
2021/12/06 08:49:31;;;;;;;73.75;27.30;;;;;;;-0.11;100.00;99816.44;1769273;80;21519;-78
2021/12/06 08:51:57;;;;;;;70.83;25.35;;;;;;;-0.11;100.00;99815.58;1768538;80;21013;-78
2021/12/06 08:54:29;;;;;;;67.17;27.07;;;;;;;-0.08;100.00;99815.58;1773545;80;21002;-79
2021/12/06 08:56:58;;;;;;;68.33;27.50;;;;;;;-0.05;100.00;99807.80;1750801;80;21071;-77
2021/12/06 08:59:25;;;;;;;73.65;29.48;;;;;;;-0.03;100.00;99803.49;1747416;82;21803;-78
2021/12/06 09:01:54;;;;;;;58.70;25.48;;;;;;;-0.01;100.00;99801.77;1758631;80;21523;-77
2021/12/06 09:04:21;;;;;;;70.32;28.60;;;;;;;0.05;100.00;99795.31;1762717;80;21508;-76
2021/12/06 09:06:50;;;;;;;66.55;27.93;;;;;;;0.07;100.00;99792.30;1748994;80;21061;-76
2021/12/06 09:09:20;;;;;;;61.63;27.30;;;;;;;0.07;100.00;99791.00;1770283;80;21186;-77
2021/12/06 09:11:48;;;;;;;70.78;27.73;;;;;;;0.11;100.00;99791.41;1776331;80;21285;-77
2021/12/06 09:14:16;;;;;;;69.05;28.92;;;;;;;0.17;100.00;99785.38;1777879;80;21045;-78
2021/12/06 09:16:42;;;;;;;67.70;26.00;;;;;;;0.21;100.00;99774.17;1748369;80;21012;-77
2021/12/06 09:19:10;;;;;;;70.52;28.12;;;;;;;0.19;100.00;99762.50;1760305;80;21020;-76
2021/12/06 09:21:38;;;;;;;105.78;36.60;;;;;;;0.20;100.00;99764.22;1757597;80;22072;-79
2021/12/06 09:24:10;;;;;;;72.17;28.50;;;;;;;0.19;100.00;99767.68;1755537;80;21080;-77
2021/12/06 09:26:37;;;;;;;101.42;35.20;;;;;;;0.18;100.00;99763.38;1768573;80;21570;-78
2021/12/06 09:29:04;;;;;;;77.10;31.35;;;;;;;0.17;100.00;99762.93;1761494;80;21061;-78
2021/12/06 09:31:31;;;;;;;100.75;33.88;;;;;;;0.16;100.00;99757.34;1755850;80;21508;-79
2021/12/06 09:33:57;;;;;;;82.90;31.70;;;;;;;0.17;100.00;99756.45;1747589;82;21598;-79
2021/12/06 09:36:25;;;;;;;99.95;35.88;;;;;;;0.20;100.00;99755.15;1750740;80;21178;-78
2021/12/06 09:38:52;;;;;;;114.03;37.10;;;;;;;0.22;100.00;99748.69;1762433;80;21048;-78
2021/12/06 09:41:23;;;;;;;90.25;35.25;;;;;;;0.22;100.00;99747.83;1766066;80;21098;-75
2021/12/06 09:43:53;;;;;;;105.30;38.02;;;;;;;0.20;100.00;99743.50;1755712;80;21108;-79
2021/12/06 09:46:20;;;;;;;82.92;34.03;;;;;;;0.22;100.00;99742.65;1770342;80;22283;-79
2021/12/06 09:48:47;;;;;;;104.75;37.83;;;;;;;0.14;100.00;99742.23;1782960;80;22009;-78
2021/12/06 09:51:25;;;;;;;85.32;34.33;;;;;;;0.10;100.00;99736.61;1784579;80;20913;-78
2021/12/06 09:53:53;;;;;;;94.20;34.50;;;;;;;0.10;100.00;99732.73;1783500;80;21550;-77
2021/12/06 09:56:39;;;;;;;88.03;32.95;;;;;;;0.07;100.00;99731.45;1783363;80;21050;-78
2021/12/06 09:59:10;;;;;;;99.30;35.13;;;;;;;0.06;100.00;99733.59;1783707;80;21036;-78
2021/12/06 10:01:41;;;;;;;148.15;47.35;;;;;;;0.06;100.00;99733.59;1783906;80;21112;-78
2021/12/06 10:04:15;;;;;;;72.47;31.85;;;;;;;0.00;100.00;99725.84;1785270;80;21068;-78
2021/12/06 10:06:42;;;;;;;82.25;31.52;;;;;;;-0.01;100.00;99720.22;1764546;80;21072;-78
2021/12/06 10:09:11;;;;;;;115.60;40.78;;;;;;;-0.01;100.00;99722.81;1754575;79;21341;-78
2021/12/06 10:11:38;;;;;;;86.82;32.95;;;;;;;-0.06;100.00;99718.08;1744634;80;269751;-77
2021/12/06 10:14:04;;;;;;;69.45;30.30;;;;;;;-0.09;100.00;99717.65;1749852;81;21216;-76
2021/12/06 10:16:31;;;;;;;104.55;39.60;;;;;;;-0.09;100.00;99715.06;1750236;81;21099;-77
2021/12/06 10:18:59;;;;;;;109.97;40.95;;;;;;;-0.10;100.00;99715.91;1750739;81;21157;-77
2021/12/06 10:21:27;;;;;;;68.35;28.15;;;;;;;-0.08;100.00;99717.21;1750760;81;21128;-77
2021/12/06 10:23:55;;;;;;;72.30;29.40;;;;;;;-0.08;100.00;99721.95;1751463;81;21057;-78
2021/12/06 10:26:26;;;;;;;94.97;35.73;;;;;;;-0.08;100.00;99715.48;1750551;81;22200;-78
2021/12/06 10:28:59;;;;;;;;;;;;;;;-0.06;100.00;99716.78;1751254;81;21656;-78
2021/12/06 10:31:29;;;;;;;65.75;28.32;;;;;;;-0.05;100.00;99710.73;1720181;83;20236;-77
2021/12/06 10:33:56;;;;;;;73.50;28.23;;;;;;;-0.06;100.00;99705.13;1697132;83;21100;-78
2021/12/06 10:36:25;;;;;;;69.40;28.38;;;;;;;-0.04;100.00;99706.00;1717572;83;21096;-74
2021/12/06 10:38:56;;;;;;;75.85;29.57;;;;;;;0.02;100.00;99707.27;1713583;83;21076;-76
2021/12/06 10:41:29;;;;;;;108.40;36.38;;;;;;;0.02;100.00;99706.41;1700422;83;21123;-75
2021/12/06 10:44:05;;;;;;;74.03;29.92;;;;;;;0.03;100.00;99703.83;1702598;83;21081;-75
2021/12/06 10:46:33;;;;;;;101.25;35.35;;;;;;;0.04;100.00;99702.95;1712813;83;21084;-76
2021/12/06 10:49:06;;;;;;;147.65;51.53;;;;;;;0.02;100.00;99707.27;1719026;83;21602;-76
2021/12/06 10:51:35;;;;;;;;;;;;;;;0.01;100.00;99702.97;1700110;83;21524;-75
2021/12/06 10:54:15;;;;;;;72.40;28.85;;;;;;;0.05;100.00;99694.34;1715344;83;20207;-74
2021/12/06 10:56:45;;;;;;;64.22;27.30;;;;;;;0.04;100.00;99695.19;1712653;83;21088;-78
2021/12/06 10:59:25;;;;;;;79.85;31.73;;;;;;;0.08;100.00;99691.73;1706879;83;21108;-79
2021/12/06 11:01:56;;;;;;;76.02;30.95;;;;;;;0.09;100.00;99690.89;1707259;83;21717;-78
2021/12/06 11:04:26;;;;;;;79.20;31.77;;;;;;;0.06;100.00;99690.88;1709693;83;21095;-78
2021/12/06 11:06:58;;;;;;;59.38;26.30;;;;;;;0.04;100.00;99690.00;1714263;83;21908;-78
2021/12/06 11:09:28;;;;;;;62.65;26.15;;;;;;;0.07;100.00;99693.91;1718912;83;21569;-78
2021/12/06 11:11:58;;;;;;;61.50;25.82;;;;;;;0.08;100.00;99695.62;1721306;83;21092;-78
2021/12/06 11:14:38;;;;;;;69.17;27.62;;;;;;;0.11;100.00;99693.02;1722393;83;21079;-78
2021/12/06 11:17:19;;;;;;;66.53;27.73;;;;;;;0.13;100.00;99687.40;1696349;83;21183;-78
2021/12/06 11:19:46;;;;;;;55.70;24.57;;;;;;;0.13;100.00;99692.58;1709847;83;21752;-77
2021/12/06 11:22:18;;;;;;;73.67;29.65;;;;;;;0.17;100.00;99692.16;1713806;83;21080;-79
2021/12/06 11:24:51;;;;;;;73.02;30.17;;;;;;;0.18;100.00;99689.58;1710569;83;21080;-78
2021/12/06 11:27:24;;;;;;;78.62;28.52;;;;;;;0.19;100.00;99684.81;1709814;83;21665;-77
2021/12/06 11:30:00;;;;;;;73.57;29.25;;;;;;;0.22;100.00;99685.67;1708865;83;21219;-80
2021/12/06 11:32:36;;;;;;;74.20;28.60;;;;;;;0.09;100.00;99657.64;1720873;83;21598;-81
2021/12/06 11:35:12;;;;;;;78.55;31.68;;;;;;;0.26;100.00;99675.75;1694968;83;21172;-78
2021/12/06 11:37:45;;;;;;;68.87;29.52;;;;;;;0.29;100.00;99678.31;1721511;83;21117;-79
2021/12/06 11:40:19;;;;;;;54.45;23.65;;;;;;;0.32;100.00;99677.00;1715378;83;21001;-78
2021/12/06 11:43:00;;;;;;;68.75;28.20;;;;;;;0.33;100.00;99680.04;1736090;82;21127;-79
2021/12/06 11:45:48;;;;;;;74.72;29.85;;;;;;;0.30;100.00;99669.66;1707636;83;21039;-78